Terminal Aerodrome Forecast
Issued by NWS Blacksburg, VA

Current Version | Previous Version | Graphics & Text | Print | Product List | Glossary On
Versions: 1 2 3 4 5 6 7 8 9 10 11 12 13 14 15 16 17 18 19 20 21 22 23 24 25
000
FTUS41 KRNK 210202 AAA
TAFBLF
TAF AMD
KBLF 210202Z 2102/2124 22004KT P6SM -SHRA FEW035 BKN100
      TEMPO 2102/2106 4SM -TSRA OVC015CB
     FM210600 25009KT P6SM VCSH OVC015
      TEMPO 2106/2109 4SM -SHRA BR OVC007
     FM211100 27007KT P6SM BKN007
     FM211800 30006KT P6SM BKN015=

USA.gov is the U.S. government's official web portal to all federal, state and local government web resources and services.